sensor_id;sensor_type;location;lat;lon;timestamp;pressure;altitude;pressure_sealevel;temperature;humidity
47710;BME280;33473;51.640;5.892;2023-04-08T00:06:39;102100;;;14.3;59.0
47710;BME280;33473;51.640;5.892;2023-04-08T00:19:58;102100;;;14.4;59.0
47710;BME280;33473;51.640;5.892;2023-04-08T00:33:18;102100;;;14.6;58.0
47710;BME280;33473;51.640;5.892;2023-04-08T00:46:38;102100;;;14.7;58.0
47710;BME280;33473;51.640;5.892;2023-04-08T00:59:57;102100;;;14.9;57.0
47710;BME280;33473;51.640;5.892;2023-04-08T01:13:17;102100;;;15.0;56.0
47710;BME280;33473;51.640;5.892;2023-04-08T01:26:37;102100;;;15.0;56.0
47710;BME280;33473;51.640;5.892;2023-04-08T01:39:56;102100;;;14.9;56.0
47710;BME280;33473;51.640;5.892;2023-04-08T01:53:16;102100;;;14.7;55.0
47710;BME280;33473;51.640;5.892;2023-04-08T02:06:36;102100;;;14.4;54.0
47710;BME280;33473;51.640;5.892;2023-04-08T02:19:55;102100;;;14.0;54.0
47710;BME280;33473;51.640;5.892;2023-04-08T02:33:15;102100;;;13.7;54.0
47710;BME280;33473;51.640;5.892;2023-04-08T02:46:35;102100;;;13.5;55.0
47710;BME280;33473;51.640;5.892;2023-04-08T02:59:55;102200;;;13.5;56.0
47710;BME280;33473;51.640;5.892;2023-04-08T03:13:14;102200;;;13.4;56.0
47710;BME280;33473;51.640;5.892;2023-04-08T03:26:34;102200;;;13.1;55.0
47710;BME280;33473;51.640;5.892;2023-04-08T03:39:54;102200;;;12.6;54.0
47710;BME280;33473;51.640;5.892;2023-04-08T03:53:13;102200;;;12.5;55.0
47710;BME280;33473;51.640;5.892;2023-04-08T04:06:33;102200;;;12.5;55.0
47710;BME280;33473;51.640;5.892;2023-04-08T04:19:53;102200;;;12.4;55.0
47710;BME280;33473;51.640;5.892;2023-04-08T04:33:12;102200;;;12.4;56.0
47710;BME280;33473;51.640;5.892;2023-04-08T04:46:32;102200;;;12.8;58.0
47710;BME280;33473;51.640;5.892;2023-04-08T04:59:52;102200;;;12.9;58.0
47710;BME280;33473;51.640;5.892;2023-04-08T05:13:11;102200;;;12.7;59.0
47710;BME280;33473;51.640;5.892;2023-04-08T05:26:31;102200;;;12.6;60.0
47710;BME280;33473;51.640;5.892;2023-04-08T05:39:51;102300;;;12.4;60.0
47710;BME280;33473;51.640;5.892;2023-04-08T05:53:10;102300;;;12.7;60.0
47710;BME280;33473;51.640;5.892;2023-04-08T06:06:30;102300;;;12.8;59.0
47710;BME280;33473;51.640;5.892;2023-04-08T06:19:50;102300;;;12.4;60.0
47710;BME280;33473;51.640;5.892;2023-04-08T06:33:10;102300;;;12.4;60.0
47710;BME280;33473;51.640;5.892;2023-04-08T06:46:29;102300;;;12.0;60.0
47710;BME280;33473;51.640;5.892;2023-04-08T06:59:49;102300;;;11.9;60.0
47710;BME280;33473;51.640;5.892;2023-04-08T07:13:09;102400;;;12.4;59.0
47710;BME280;33473;51.640;5.892;2023-04-08T07:26:28;102400;;;13.0;58.0
47710;BME280;33473;51.640;5.892;2023-04-08T07:39:48;102400;;;12.1;59.0
47710;BME280;33473;51.640;5.892;2023-04-08T07:53:08;102400;;;11.4;61.0
47710;BME280;33473;51.640;5.892;2023-04-08T08:06:27;102400;;;12.2;60.0
47710;BME280;33473;51.640;5.892;2023-04-08T08:19:47;102400;;;12.9;58.0
47710;BME280;33473;51.640;5.892;2023-04-08T08:33:07;102400;;;13.0;58.0
47710;BME280;33473;51.640;5.892;2023-04-08T08:46:26;102400;;;13.3;56.0
47710;BME280;33473;51.640;5.892;2023-04-08T08:59:46;102400;;;13.4;56.0
47710;BME280;33473;51.640;5.892;2023-04-08T09:13:06;102400;;;14.3;55.0
47710;BME280;33473;51.640;5.892;2023-04-08T09:26:25;102500;;;15.2;53.0
47710;BME280;33473;51.640;5.892;2023-04-08T09:39:45;102500;;;17.1;47.0
47710;BME280;33473;51.640;5.892;2023-04-08T09:53:05;102500;;;17.3;45.0
47710;BME280;33473;51.640;5.892;2023-04-08T10:06:24;102400;;;17.6;44.0
47710;BME280;33473;51.640;5.892;2023-04-08T10:19:44;102400;;;18.1;45.0
47710;BME280;33473;51.640;5.892;2023-04-08T10:33:04;102400;;;18.2;43.0
47710;BME280;33473;51.640;5.892;2023-04-08T10:46:23;102400;;;18.9;43.0
47710;BME280;33473;51.640;5.892;2023-04-08T10:59:43;102400;;;17.8;44.0
47710;BME280;33473;51.640;5.892;2023-04-08T11:13:03;102400;;;17.4;40.0
47710;BME280;33473;51.640;5.892;2023-04-08T11:26:22;102400;;;19.8;39.0
47710;BME280;33473;51.640;5.892;2023-04-08T11:39:42;102400;;;21.2;33.0
47710;BME280;33473;51.640;5.892;2023-04-08T11:53:02;102400;;;19.9;35.0
47710;BME280;33473;51.640;5.892;2023-04-08T12:06:21;102400;;;19.6;33.0
47710;BME280;33473;51.640;5.892;2023-04-08T12:19:41;102400;;;18.2;33.0
47710;BME280;33473;51.640;5.892;2023-04-08T12:33:01;102400;;;19.4;35.0
47710;BME280;33473;51.640;5.892;2023-04-08T12:46:20;102400;;;19.0;36.0
47710;BME280;33473;51.640;5.892;2023-04-08T12:59:40;102400;;;20.0;33.0
47710;BME280;33473;51.640;5.892;2023-04-08T13:13:00;102400;;;19.4;32.0
47710;BME280;33473;51.640;5.892;2023-04-08T13:26:20;102400;;;19.5;32.0
47710;BME280;33473;51.640;5.892;2023-04-08T13:39:39;102400;;;20.7;33.0
47710;BME280;33473;51.640;5.892;2023-04-08T13:52:59;102400;;;20.9;27.0
47710;BME280;33473;51.640;5.892;2023-04-08T14:06:19;102400;;;21.9;27.0
47710;BME280;33473;51.640;5.892;2023-04-08T14:19:38;102400;;;22.4;26.0
47710;BME280;33473;51.640;5.892;2023-04-08T14:32:58;102400;;;21.2;28.0
47710;BME280;33473;51.640;5.892;2023-04-08T14:46:18;102400;;;19.9;28.0
47710;BME280;33473;51.640;5.892;2023-04-08T14:59:37;102400;;;19.6;30.0
47710;BME280;33473;51.640;5.892;2023-04-08T15:12:57;102400;;;19.6;30.0
47710;BME280;33473;51.640;5.892;2023-04-08T15:26:17;102300;;;21.8;32.0
47710;BME280;33473;51.640;5.892;2023-04-08T15:39:36;102300;;;22.7;32.0
47710;BME280;33473;51.640;5.892;2023-04-08T15:52:56;102400;;;22.0;32.0
47710;BME280;33473;51.640;5.892;2023-04-08T16:06:16;102400;;;21.3;35.0
47710;BME280;33473;51.640;5.892;2023-04-08T16:19:35;102400;;;20.7;35.0
47710;BME280;33473;51.640;5.892;2023-04-08T16:32:55;102400;;;20.5;35.0
47710;BME280;33473;51.640;5.892;2023-04-08T16:46:15;102400;;;20.3;36.0
47710;BME280;33473;51.640;5.892;2023-04-08T16:59:34;102400;;;19.9;37.0
47710;BME280;33473;51.640;5.892;2023-04-08T17:12:54;102400;;;19.6;38.0
47710;BME280;33473;51.640;5.892;2023-04-08T17:26:14;102400;;;19.2;39.0
47710;BME280;33473;51.640;5.892;2023-04-08T17:39:34;102400;;;19.2;39.0
47710;BME280;33473;51.640;5.892;2023-04-08T17:52:53;102400;;;18.9;41.0
47710;BME280;33473;51.640;5.892;2023-04-08T18:06:13;102400;;;18.6;41.0
47710;BME280;33473;51.640;5.892;2023-04-08T18:19:33;102400;;;18.6;41.0
47710;BME280;33473;51.640;5.892;2023-04-08T18:32:52;102400;;;18.3;42.0
47710;BME280;33473;51.640;5.892;2023-04-08T18:46:12;102400;;;18.2;43.0
47710;BME280;33473;51.640;5.892;2023-04-08T18:59:32;102400;;;18.0;43.0
47710;BME280;33473;51.640;5.892;2023-04-08T19:12:51;102400;;;17.9;43.0
47710;BME280;33473;51.640;5.892;2023-04-08T19:26:11;102400;;;17.7;44.0
47710;BME280;33473;51.640;5.892;2023-04-08T19:39:31;102500;;;17.6;44.0
47710;BME280;33473;51.640;5.892;2023-04-08T19:52:50;102500;;;17.4;45.0
47710;BME280;33473;51.640;5.892;2023-04-08T20:06:10;102500;;;17.3;44.0
47710;BME280;33473;51.640;5.892;2023-04-08T20:19:30;102500;;;17.3;44.0
47710;BME280;33473;51.640;5.892;2023-04-08T20:32:50;102500;;;17.2;45.0
47710;BME280;33473;51.640;5.892;2023-04-08T20:46:09;102500;;;17.2;45.0
47710;BME280;33473;51.640;5.892;2023-04-08T20:59:29;102500;;;17.2;45.0
47710;BME280;33473;51.640;5.892;2023-04-08T21:12:49;102500;;;17.2;45.0
47710;BME280;33473;51.640;5.892;2023-04-08T21:26:08;102500;;;17.0;46.0
47710;BME280;33473;51.640;5.892;2023-04-08T21:39:28;102500;;;17.0;46.0
47710;BME280;33473;51.640;5.892;2023-04-08T21:52:48;102500;;;17.0;46.0
47710;BME280;33473;51.640;5.892;2023-04-08T22:06:07;102500;;;17.0;46.0
47710;BME280;33473;51.640;5.892;2023-04-08T22:19:27;102500;;;16.9;46.0
47710;BME280;33473;51.640;5.892;2023-04-08T22:32:47;102500;;;16.9;47.0
47710;BME280;33473;51.640;5.892;2023-04-08T22:46:06;102500;;;16.8;47.0
47710;BME280;33473;51.640;5.892;2023-04-08T22:59:26;102500;;;16.7;47.0
47710;BME280;33473;51.640;5.892;2023-04-08T23:12:46;102500;;;16.8;47.0
47710;BME280;33473;51.640;5.892;2023-04-08T23:26:05;102500;;;16.7;47.0
47710;BME280;33473;51.640;5.892;2023-04-08T23:39:25;102500;;;16.7;47.0
47710;BME280;33473;51.640;5.892;2023-04-08T23:52:45;102500;;;16.7;47.0
